Weather observations for the past three days for
Versailles Darke County Airport
Imperial (Metric)
Date Time (edt) Wind (mph) Vis. (mi.) Weather Sky Cond. Temperature (ºF) Relative Humidity Wind Chill (°F) Heat Index (°F) Pressure Precipitation (in)
Air Dwpt 6 hour altimeter (in) sea level (mb) 1 hr 3 hr 6 hr
Max. Min.
03 02:35 SW 5 10.00 Fair CLR 78.8 78.8 100% 83 30.02 0.0
03 02:15 SW 5 10.00 Fair CLR 78.8 78.8 100% 83 30.02 0.0
03 01:55 SW 5 10.00 Fair CLR 78.8 78.8 86.4 79.2 100% 83 30.02 0.0
03 01:35 SW 6 10.00 Fair CLR 78.8 78.8 100% 83 30.02 0.0
03 01:15 SW 7 10.00 Fair CLR 78.8 78.8 100% 83 30.01 0.0
03 00:55 SW 8 10.00 Fair CLR 80.6 80.6 100% 89 30.01 0.0
03 00:35 SW 7 10.00 Fair CLR 80.6 80.6 100% 89 30.01 0.0
03 00:15 SW 8 10.00 Fair CLR 80.6 80.6 100% 89 30.01 0.0
02 23:55 SW 7 10.00 Fair CLR 80.6 80.6 100% 89 30.01 0.0
02 23:35 SW 7 10.00 Fair CLR 80.6 80.6 100% 89 30.01 0.0
02 23:15 SW 8 10.00 Fair CLR 80.6 80.6 100% 89 30.01 0.0
02 22:55 SW 7 10.00 Fair CLR 80.6 80.6 100% 89 30.02 0.0
02 22:35 SW 5 10.00 Fair CLR 80.6 80.6 100% 89 30.02 0.0
02 22:15 SW 6 10.00 Fair CLR 80.6 80.6 100% 89 30.02 0.0
02 21:55 SW 6 10.00 Fair CLR 80.6 80.6 100% 89 30.02 0.0
02 21:35 SW 5 10.00 Fair CLR 82.4 77 84% 91 30.02 0.0
02 21:15 S 5 10.00 Fair CLR 82.4 77 84% 91 30.01 0.0
02 20:55 S 5 10.00 Fair CLR 82.4 75.2 79% 89 30.01 0.0
02 20:35 S 6 10.00 Fair CLR 84.2 75.2 74% 92 30 0.0
02 20:15 SW 6 10.00 Fair CLR 84.2 75.2 74% 92 30 0.0
02 19:55 SW 7 10.00 Fair CLR 86 75.2 92.7 86.4 70% 95 30 0.0
02 19:35 SW 8 10.00 Fair CLR 87.8 75.2 66% 98 30 0.0
02 19:15 SW 7 10.00 Fair CLR 87.8 75.2 66% 98 30 0.0
02 18:55 SW 7 10.00 Fair CLR 89.6 75.2 63% 100 30 0.0
02 18:35 SW 8 10.00 Fair CLR 89.6 75.2 63% 100 30 0.0
02 18:15 SW 9 G 16 10.00 Fair CLR 91.4 75.2 59% 103 30 0.0
02 17:55 SW 12 G 18 10.00 Fair CLR 91.4 75.2 59% 103 30 0.0
02 17:35 SW 13 10.00 Fair CLR 91.4 75.2 59% 103 30.01 0.0
02 17:15 SW 10 G 16 10.00 A Few Clouds FEW050 91.4 75.2 59% 103 30 0.0
02 16:55 SW 9 G 20 10.00 Fair CLR 91.4 75.2 59% 103 30.01 0.0
02 16:35 SW 9 G 16 10.00 A Few Clouds FEW050 93.2 75.2 56% 105 30.01 0.0
02 16:15 SW 10 G 17 10.00 Fair CLR 91.4 75.2 59% 103 30.02 0.0
02 15:55 SW 12 G 16 10.00 A Few Clouds FEW050 FEW060 91.4 73.4 56% 100 30.03 0.0
02 15:35 SW 10 G 18 10.00 A Few Clouds FEW050 91.4 73.4 56% 100 30.03 0.0
02 15:15 SW 7 G 21 10.00 A Few Clouds FEW050 91.4 73.4 56% 100 30.04 0.0
02 14:55 SW 10 10.00 A Few Clouds FEW050 91.4 73.4 56% 100 30.04 0.0
02 14:35 S 8 10.00 A Few Clouds FEW047 91.4 75.2 59% 103 30.05 0.0
02 14:15 SW 8 G 17 10.00 Fair CLR 91.4 73.4 56% 100 30.05 0.0
02 13:55 SW 9 10.00 Fair CLR 91.4 73.4 91.6 73.6 56% 100 30.06 0.0
02 13:35 SW 8 G 16 10.00 Fair CLR 91.4 73.4 56% 100 30.06 0.0
02 13:15 SW 7 10.00 Fair CLR 91.4 75.2 59% 103 30.07 0.0
02 12:55 SW 12 10.00 Fair CLR 89.6 73.4 59% 98 30.07 0.0
02 12:35 Vrbl 6 10.00 Fair CLR 91.4 75.2 59% 103 30.08 0.0
02 12:15 SW 7 10.00 Fair CLR 89.6 75.2 63% 100 30.08 0.0
02 11:55 W 7 10.00 Fair CLR 89.6 75.2 63% 100 30.08 0.0
02 11:35 W 7 10.00 Fair CLR 87.8 75.2 66% 98 30.07 0.0
02 11:15 W 7 10.00 Fair CLR 87.8 75.2 66% 98 30.07 0.0
02 10:55 W 7 10.00 Fair CLR 87.8 75.2 66% 98 30.07 0.0
02 10:35 W 8 10.00 Fair CLR 86 75.2 70% 95 30.08 0.0
02 10:15 W 8 10.00 Fair CLR 84.2 77 79% 94 30.08 0.0
02 09:55 W 7 10.00 Fair CLR 82.4 75.2 79% 89 30.08 0.0
02 09:35 W 8 10.00 Fair CLR 82.4 77 84% 91 30.08 0.0
02 09:15 SW 7 10.00 Fair CLR 80.6 78.8 94% 88 30.07 0.0
02 08:55 W 6 10.00 Fair CLR 78.8 78.8 100% 83 30.08 0.0
02 08:35 W 6 10.00 Fair CLR 77 77 100% 78 30.08 0.0
02 08:15 SW 6 10.00 Fair CLR 75.2 75.2 100% 73 30.08 0.0
02 07:55 SW 5 10.00 Fair CLR 73.4 73.4 77.9 72.1 100% 30.07 0.0
02 07:35 SW 5 10.00 Fair CLR 73.4 73.4 100% 30.06 0.0
02 07:15 SW 6 10.00 Fair CLR 73.4 73.4 100% 30.06 0.0
02 06:55 SW 6 10.00 Fair CLR 73.4 73.4 100% 30.05 0.0
02 06:35 SW 5 10.00 Fair CLR 71.6 71.6 100% 30.05 0.0
02 06:15 SW 6 10.00 Fair CLR 73.4 73.4 100% 30.05 0.0
02 05:55 SW 5 10.00 Fair CLR 73.4 73.4 100% 30.05 0.0
02 05:35 SW 5 10.00 Fair CLR 73.4 73.4 100% 30.05 0.0
02 05:15 SW 5 10.00 Fair CLR 73.4 73.4 100% 30.05 0.0
02 04:55 SW 5 10.00 Fair CLR 73.4 73.4 100% 30.05 0.0
02 04:35 SW 3 10.00 Fair CLR 73.4 73.4 100% 30.04 0.0
02 04:15 SW 3 10.00 Fair CLR 75.2 75.2 100% 73 30.04 0.0
02 03:55 SW 3 10.00 Fair CLR 75.2 75.2 100% 73 30.04 0.0
02 03:35 SW 5 10.00 Partly Cloudy SCT042 75.2 75.2 100% 73 30.04 0.0
02 03:15 SW 5 10.00 Mostly Cloudy BKN042 77 77 100% 78 30.04 0.0
02 02:55 SW 7 10.00 Fair CLR 77 77 100% 78 30.04 0.0
02 02:35 SW 7 10.00 Fair CLR 77 77 100% 78 30.04 0.0
02 02:15 SW 7 10.00 Fair CLR 77 77 100% 78 30.05 0.0
02 01:55 SW 7 10.00 Fair CLR 77 77 86 77.5 100% 78 30.05 0.0
02 01:35 SW 7 10.00 Fair CLR 78.8 78.8 100% 83 30.05 0.0
02 01:15 SW 7 10.00 Fair CLR 78.8 78.8 100% 83 30.04 0.0
02 00:55 SW 6 10.00 Fair CLR 78.8 78.8 100% 83 30.04 0.0
02 00:35 SW 6 10.00 Fair CLR 78.8 78.8 100% 83 30.04 0.0
02 00:10 SW 7 10.00 Fair CLR 78.8 78.8 100% 83 30.04 0.0
01 23:55 SW 5 10.00 Fair CLR 78.8 78.8 100% 83 30.04 0.0
01 23:35 SW 7 10.00 Fair CLR 78.8 78.8 100% 83 30.04 0.0
01 23:15 SW 5 10.00 Fair CLR 78.8 78.8 100% 83 30.05 0.0
01 22:55 SW 6 10.00 Fair CLR 78.8 78.8 100% 83 30.04 0.0
01 22:35 SW 7 10.00 Fair CLR 80.6 80.6 100% 89 30.04 0.0
01 22:15 SW 6 10.00 Fair CLR 80.6 80.6 100% 89 30.04 0.0
01 21:55 SW 6 10.00 Fair CLR 80.6 78.8 94% 88 30.04 0.0
01 21:35 S 7 10.00 Fair CLR 80.6 77 89% 87 30.04 0.0
01 21:15 S 6 10.00 Fair CLR 82.4 77 84% 91 30.03 0.0
01 20:55 Vrbl 5 10.00 Fair CLR 82.4 77 84% 91 30.03 0.0
01 20:35 S 5 10.00 Fair CLR 84.2 77 79% 94 30.02 0.0
01 20:15 S 3 10.00 Fair CLR 84.2 77 79% 94 30.03 0.0
01 19:55 S 3 10.00 Fair CLR 86 75.2 92.7 85.6 70% 95 30.03 0.0
01 19:35 S 6 10.00 Fair CLR 86 75.2 70% 95 30.03 0.0
01 19:15 SW 6 10.00 Fair CLR 87.8 75.2 66% 98 30.04 0.0
01 18:55 SW 6 10.00 Fair CLR 89.6 75.2 63% 100 30.04 0.0
01 18:35 SW 7 10.00 Fair CLR 89.6 75.2 63% 100 30.03 0.0
01 18:15 SW 8 10.00 Mostly Cloudy BKN080 89.6 75.2 63% 100 30.03 0.0
01 17:55 SW 8 10.00 Mostly Cloudy BKN080 91.4 75.2 59% 103 30.03 0.0
01 17:35 SW 8 10.00 Mostly Cloudy BKN080 91.4 75.2 59% 103 30.03 0.0
01 17:15 SW 12 10.00 Partly Cloudy SCT080 SCT110 91.4 73.4 56% 100 30.03 0.0
01 16:55 SW 10 10.00 Fair CLR 91.4 75.2 59% 103 30.03 0.0
01 16:35 SW 10 10.00 Fair CLR 91.4 75.2 59% 103 30.03 0.0
01 16:15 SW 12 10.00 Fair CLR 93.2 75.2 56% 105 30.03 0.0
01 15:55 SW 9 10.00 Fair CLR 91.4 75.2 59% 103 30.04 0.0
01 15:35 SW 13 G 16 10.00 Fair CLR 91.4 73.4 56% 100 30.04 0.0
01 15:15 SW 8 10.00 Fair CLR 91.4 73.4 56% 100 30.04 0.0
01 14:55 SW 13 G 17 10.00 Fair CLR 91.4 75.2 59% 103 30.05 0.0
01 14:35 SW 13 G 21 10.00 A Few Clouds FEW110 91.4 75.2 59% 103 30.05 0.0
01 14:15 SW 13 G 16 10.00 A Few Clouds FEW120 91.4 75.2 59% 103 30.05 0.0
01 13:55 SW 10 G 17 10.00 A Few Clouds FEW110 89.6 75.2 89.8 74.5 63% 100 30.05 0.0
01 13:35 SW 8 10.00 A Few Clouds FEW110 89.6 75.2 63% 100 30.05 0.0
01 13:15 SW 12 10.00 Fair CLR 89.6 75.2 63% 100 30.06 0.0
01 12:55 SW 10 10.00 A Few Clouds FEW100 87.8 75.2 66% 98 30.06 0.0
01 12:35 SW 10 10.00 A Few Clouds FEW100 87.8 75.2 66% 98 30.07 0.0
01 12:15 SW 8 10.00 A Few Clouds FEW110 86 75.2 70% 95 30.07 0.0
01 11:55 SW 8 10.00 A Few Clouds FEW110 86 75.2 70% 95 30.07 0.0
01 11:35 SW 8 10.00 Fair CLR 86 75.2 70% 95 30.07 0.0
01 11:15 SW 6 10.00 Partly Cloudy SCT100 84.2 80.6 89% 98 30.08 0.0
01 10:55 SW 6 10.00 Mostly Cloudy BKN100 80.6 78.8 94% 88 30.08 0.0
01 10:15 SW 8 10.00 Mostly Cloudy BKN110 78.8 78.8 100% 83 30.08 0.0
01 09:55 SW 8 10.00 Mostly Cloudy BKN100 78.8 78.8 100% 83 30.08 0.0
01 09:35 SW 8 10.00 Mostly Cloudy BKN100 78.8 78.8 100% 83 30.08 0.0
01 09:15 SW 9 10.00 Overcast OVC100 77 77 100% 78 30.08 0.0
01 08:55 SW 8 10.00 Mostly Cloudy BKN100 77 77 100% 78 30.08 0.0
01 08:35 SW 7 10.00 Overcast OVC100 75.2 75.2 100% 73 30.08 0.0
01 08:15 SW 7 10.00 Overcast OVC110 75.2 75.2 100% 73 30.08 0.0
01 07:55 SW 8 10.00 Overcast OVC100 75.2 75.2 76.8 73.6 100% 73 30.08 0.0
01 07:35 SW 7 10.00 Mostly Cloudy BKN100 BKN120 75.2 75.2 100% 73 30.07 0.0
01 07:15 SW 7 10.00 Mostly Cloudy BKN110 73.4 73.4 100% 30.06 0.0
01 06:55 SW 8 10.00 Overcast OVC110 73.4 73.4 100% 30.06 0.0
01 06:35 SW 7 10.00 Mostly Cloudy BKN110 75.2 75.2 100% 73 30.06 0.0
01 06:15 SW 6 10.00 Overcast OVC095 75.2 75.2 100% 73 30.06 0.0
01 05:55 SW 7 10.00 Mostly Cloudy BKN095 75.2 75.2 100% 73 30.05 0.0
01 05:35 SW 7 10.00 Fair CLR 73.4 73.4 100% 30.05 0.0
01 05:15 SW 8 10.00 Fair CLR 75.2 73.4 94% 74 30.05 0.0
01 04:55 SW 7 10.00 Fair CLR 75.2 75.2 100% 73 30.04 0.0
01 04:35 SW 7 10.00 Fair CLR 75.2 75.2 100% 73 30.04 0.0
01 04:15 SW 6 10.00 A Few Clouds FEW110 75.2 75.2 100% 73 30.04 0.0
01 03:55 SW 6 10.00 Mostly Cloudy BKN110 73.4 73.4 100% 30.04 0.0
01 03:35 S 6 10.00 A Few Clouds FEW100 75.2 75.2 100% 73 30.04 0.0
01 03:15 S 7 10.00 A Few Clouds FEW100 75.2 75.2 100% 73 30.04 0.0
01 02:55 S 5 10.00 Mostly Cloudy BKN100 75.2 75.2 100% 73 30.04 0.0
01 02:35 S 3 10.00 Overcast OVC100 77 77 100% 78 30.04 0.0
01 02:15 Vrbl 5 10.00 Mostly Cloudy BKN100 77 77 100% 78 30.04 0.0
01 01:55 SW 6 10.00 A Few Clouds FEW100 77 77 82.6 76.8 100% 78 30.05 0.0
01 01:35 SW 6 10.00 Fair CLR 77 77 100% 78 30.05 0.0
01 01:15 SW 6 10.00 Fair CLR 78.8 78.8 100% 83 30.04 0.0
01 00:55 SW 9 10.00 Partly Cloudy FEW044 SCT090 SCT120 77 77 100% 78 30.02 0.0 0.01
01 00:35 SW 10 G 17 10.00 Light Rain SCT048 BKN070 BKN080 78.8 78.8 100% 83 30.03 0.0
01 00:15 S 15 10.00 A Few Clouds FEW070 FEW085 FEW110 78.8 78.8 100% 83 30.01 0.0
31 23:55 SW 7 10.00 Fair CLR 78.8 78.8 100% 83 30.05 0.0
31 23:35 SW 6 10.00 Partly Cloudy FEW050 SCT075 SCT110 78.8 78.8 100% 83 30.05 0.0
31 23:15 S 12 G 17 10.00 Mostly Cloudy SCT060 BKN075 BKN095 78.8 78.8 100% 83 30.03 0.0
31 22:55 S 6 10.00 A Few Clouds FEW120 78.8 78.8 100% 83 30.05 0.0
31 22:35 S 6 10.00 A Few Clouds FEW120 77 77 100% 78 30.06 0.0
31 22:15 S 5 10.00 Partly Cloudy SCT120 78.8 78.8 100% 83 30.06 0.0
31 21:55 S 5 10.00 A Few Clouds FEW110 77 77 100% 78 30.07 0.0
31 21:35 Vrbl 3 10.00 A Few Clouds FEW120 78.8 78.8 100% 83 30.07 0.0
31 21:15 SE 3 10.00 Partly Cloudy SCT120 78.8 78.8 100% 83 30.06 0.0
31 20:55 SE 2 10.00 Mostly Cloudy BKN120 78.8 78.8 100% 83 30.06 0.0
31 20:35 SE 3 10.00 Mostly Cloudy BKN120 77 77 100% 78 30.06 0.0
31 20:15 SE 5 10.00 Fair CLR 78.8 77 94% 83 30.05 0.0
31 19:35 Calm 10.00 Fair CLR 82.4 75.2 79% 89 30.06 0.0
31 19:15 SW 5 10.00 Fair CLR 84.2 73.4 70% 91 30.04 0.0
31 18:55 SW 7 10.00 Fair CLR 86 71.6 62% 92 30.04 0.0
31 18:35 SW 6 10.00 Fair CLR 86 71.6 62% 92 30.04 0.0
31 18:15 SW 10 10.00 Fair CLR 87.8 71.6 59% 94 30.04 0.0
31 17:55 SW 9 G 16 10.00 Fair CLR 87.8 71.6 59% 94 30.04 0.0
31 17:35 SW 9 10.00 Fair CLR 87.8 73.4 62% 96 30.03 0.0
31 17:15 SW 9 G 18 10.00 Fair CLR 87.8 73.4 62% 96 30.03 0.0
31 16:55 SW 12 G 17 10.00 Fair CLR 86 73.4 66% 93 30.02 0.0
31 16:35 S 12 G 20 10.00 Fair CLR 86 75.2 70% 95 30.02 0.0
31 16:15 SW 8 10.00 Fair CLR 84.2 75.2 74% 92 30.06 0.0
31 15:55 SW 7 10.00 Fair CLR 84.2 73.4 70% 91 30.07 0.0
31 15:35 SW 7 10.00 Fair CLR 84.2 73.4 70% 91 30.07 0.0
31 15:15 SW 9 10.00 Fair CLR 84.2 71.6 66% 90 30.08 0.0
31 14:55 SW 12 10.00 Fair CLR 86 73.4 66% 93 30.09 0.0
31 14:35 W 6 10.00 Fair CLR 86 73.4 66% 93 30.1 0.0
31 14:15 W 6 10.00 Fair CLR 84.2 75.2 74% 92 30.11 0.0
31 13:55 SW 9 10.00 Fair CLR 84.2 75.2 84.9 71.1 74% 92 30.11 0.0
31 13:35 SW 7 10.00 Fair CLR 82.4 75.2 79% 89 30.12 0.0
31 13:15 SW 5 10.00 Fair CLR 82.4 75.2 79% 89 30.12 0.0
31 12:55 W 6 10.00 Fair CLR 84.2 75.2 74% 92 30.12 0.0
31 12:35 SW 7 10.00 Fair CLR 82.4 75.2 79% 89 30.12 0.0
31 12:15 SW 7 10.00 Fair CLR 82.4 75.2 79% 89 30.12 0.0
31 11:55 SW 7 10.00 Fair CLR 82.4 75.2 79% 89 30.12 0.0
31 11:35 W 8 10.00 Fair CLR 82.4 75.2 79% 89 30.12 0.0
31 11:15 SW 8 10.00 Fair CLR 84.2 75.2 74% 92 30.12 0.0
31 10:55 SW 6 10.00 Fair CLR 82.4 75.2 79% 89 30.11 0.0
31 10:35 SW 6 10.00 Fair CLR 82.4 73.4 74% 88 30.11 0.0
31 10:15 SW 8 10.00 Fair CLR 82.4 71.6 70% 87 30.1 0.0
31 09:55 SW 6 10.00 Fair CLR 80.6 75.2 84% 86 30.1 0.0
31 09:35 SW 3 10.00 Fair CLR 77 77 100% 78 30.11 0.0
31 09:15 SW 2 10.00 Fair CLR 75.2 75.2 100% 73 30.11 0.0
31 08:55 Vrbl 3 10.00 Fair CLR 73.4 73.4 100% 30.1 0.0
31 08:35 S 2 10.00 Fair CLR 73.4 73.4 100% 30.1 0.0
31 08:15 S 3 10.00 Fair CLR 71.6 71.6 100% 30.1 0.0
31 07:55 Vrbl 2 10.00 Fair CLR 71.6 71.6 71.8 68.9 100% 30.1 0.0
31 07:35 SW 3 10.00 Fair CLR 71.6 71.6 100% 30.09 0.0
31 07:15 S 2 10.00 Fair CLR 71.6 71.6 100% 30.09 0.0
31 06:55 S 3 10.00 Fair CLR 69.8 69.8 100% 30.09 0.0
31 06:35 S 2 10.00 Fair CLR 69.8 69.8 100% 30.08 0.0
31 06:15 S 3 10.00 Fair CLR 71.6 71.6 100% 30.08 0.0
31 05:55 S 5 10.00 Fair CLR 69.8 69.8 100% 30.08 0.0
31 05:35 SE 3 10.00 Fair CLR 69.8 69.8 100% 30.08 0.0
31 05:15 SE 3 10.00 Fair CLR 69.8 69.8 100% 30.08 0.0
31 04:55 SE 3 9.00 Fair CLR 69.8 69.8 100% 30.08 0.0
31 04:35 SE 1 10.00 A Few Clouds FEW110 69.8 69.8 100% 30.08 0.0
31 04:15 Calm 10.00 Mostly Cloudy BKN110 69.8 69.8 100% 30.08 0.0
31 03:55 Vrbl 1 10.00 A Few Clouds FEW110 69.8 69.8 100% 30.07 0.0
31 03:35 S 3 10.00 Fair CLR 71.6 71.6 100% 30.07 0.0
31 03:15 S 5 10.00 Fair CLR 69.8 69.8 100% 30.07 0.0
31 02:55 SE 1 10.00 Fair CLR 69.8 69.8 100% 30.08 0.0
Date Time (edt) Wind (mph) Vis. (mi.) Weather Sky Cond. Air Dwpt Max. Min. Relative Humidity Wind Chill (°F) Heat Index (°F) altimeter (in) sea level (mb) 1 hr 3 hr 6 hr
6 hour
Temperature (ºF) Pressure Precipitation (in)